Flight Track Log - Related Links

Times and Time Zones

All times are in EDT time to prevent confusion due to time zone crossing. See the EJA831 flight status page for this flight to view local times or setup timezone preferences in your user account.

Time Position Orientation Groundspeed Altitude Reporting Facility
EDT Latitude Longitude Course Direction KTS MPH feet Rate Location/Type
Sun 03:12:00 PM 37.7358 -97.2225 148° Southeast 156 180 1,900  Level Kansas City Center
Sun 03:12:49 PM 37.6994 -97.1939 148° Southeast 217 250 3,000 1,263 Climbing Kansas City Center
Sun 03:13:16 PM 37.6978 -97.1678 95° East 220 253 3,500 1,846 Climbing Kansas City Center
Sun 03:13:41 PM 37.7086 -97.1183 75° East 269 310 4,600 2,361 Climbing Kansas City Center
Sun 03:14:17 PM 37.7181 -97.0769 74° East 255 293 5,900 2,816 Climbing Kansas City Center
Sun 03:15:19 PM 37.7414 -96.9731 74° East 300 345 9,200 3,000 Climbing Kansas City Center
Sun 03:16:21 PM 37.7661 -96.8636 74° East 321 369 12,100 3,220 Climbing Kansas City Center
Sun 03:17:22 PM 37.7972 -96.7311 73° East 330 380 15,800 2,852 Climbing Kansas City Center
Sun 03:18:23 PM 37.8217 -96.6172 75° East 334 384 17,900 1,968 Climbing Kansas City Center
Sun 03:19:27 PM 37.8486 -96.4981 74° East 350 403 19,900 1,920 Climbing Kansas City Center
Sun 03:20:28 PM 37.8753 -96.3731 75° East 364 419 21,900 1,983 Climbing Kansas City Center
Sun 03:21:28 PM 37.9028 -96.2481 74° East 368 423 23,900 1,824 Climbing Kansas City Center
Sun 03:22:33 PM 37.9331 -96.1108 74° East 373 429 25,700 1,381 Climbing Kansas City Center
Sun 03:23:34 PM 37.9647 -95.9639 75° East 388 447 26,800 992 Climbing Kansas City Center
Sun 03:24:34 PM 37.9925 -95.8322 75° East 402 463 27,700 919 Climbing Kansas City Center
Sun 03:25:38 PM 38.0200 -95.6997 75° East 405 466 28,700 624 Climbing Kansas City Center
Sun 03:26:39 PM 38.0533 -95.5422 75° East 415 478 29,000 146 Climbing Kansas City Center
Sun 03:27:41 PM 38.0833 -95.4014 75° East 431 496 29,000  Level Kansas City Center
Sun 03:28:43 PM 38.1189 -95.2319 75° East 444 511 29,000  Level Kansas City Center
Sun 03:29:43 PM 38.1486 -95.0867 75° East 444 511 29,000  Level Kansas City Center
Sun 03:30:47 PM 38.1825 -94.9239 75° East 435 501 29,000  Level Kansas City Center
Sun 03:31:48 PM 38.2083 -94.7964 76° East 411 473 29,000  Level Kansas City Center
Sun 03:32:49 PM 38.2397 -94.6422 75° East 403 464 29,000  Level Kansas City Center
Sun 03:33:50 PM 38.2686 -94.5006 75° East 413 475 29,000  Level Kansas City Center
Sun 03:34:54 PM 38.2983 -94.3283 78° East 432 497 29,000  Level Kansas City Center
Sun 03:35:55 PM 38.3219 -94.1811 78° East 440 506 29,000  Level Kansas City Center
Sun 03:36:56 PM 38.3439 -94.0417 79° East 440 506 29,000  Level Kansas City Center
Sun 03:37:59 PM 38.3725 -93.8575 79° East 440 506 29,000  Level Kansas City Center
Sun 03:38:59 PM 38.3969 -93.7019 79° East 444 511 29,000  Level Kansas City Center
Sun 03:40:00 PM 38.4228 -93.5469 78° East 445 512 29,000  Level Kansas City Center
Sun 03:41:04 PM 38.4464 -93.3919 79° East 445 512 29,000 -96 Level Kansas City Center
Sun 03:42:05 PM 38.4711 -93.2347 79° East 447 514 28,800 -581 Descending Kansas City Center
Sun 03:43:08 PM 38.4964 -93.0758 78° East 453 521 27,800 -976 Descending Kansas City Center
Sun 03:44:08 PM 38.5211 -92.9197 79° East 448 516 26,800 -992 Descending Kansas City Center
Sun 03:45:09 PM 38.5444 -92.7633 79° East 445 512 25,800 -984 Descending Kansas City Center
Sun 03:46:10 PM 38.5672 -92.6086 79° East 443 510 24,800 -864 Descending Kansas City Center
Sun 03:47:14 PM 38.5942 -92.4239 79° East 440 506 24,000 -387 Descending Kansas City Center
Sun 03:48:14 PM 38.6164 -92.2678 80° East 440 506 24,000  Level Kansas City Center
Sun 03:49:18 PM 38.6381 -92.1186 79° East 430 495 24,000 -48 Level Kansas City Center
Sun 03:50:19 PM 38.6600 -91.9683 79° East 426 490 23,900 -1,328 Descending Kansas City Center
Sun 03:51:20 PM 38.6803 -91.8183 80° East 426 490 21,300 -2,468 Descending Kansas City Center
Sun 03:52:23 PM 38.6933 -91.6792 83° East 400 460 18,800 -2,177 Descending Kansas City Center
Sun 03:53:24 PM 38.6922 -91.5342 91° East 401 461 16,800 -1,805 Descending Kansas City Center
Sun 03:54:26 PM 38.6928 -91.3925 90° East 398 458 15,100 -829 Descending Kansas City Center
Sun 03:55:27 PM 38.6939 -91.2572 89° East 384 442 15,100 -49 Level Kansas City Center
Sun 03:56:29 PM 38.6942 -91.1208 90° East 384 442 15,000 -571 Descending Kansas City Center
Sun 03:57:33 PM 38.6944 -90.9550 90° East 387 445 13,900 -1,488 Descending Kansas City Center
Sun 03:58:34 PM 38.7008 -90.8217 86° East 383 441 11,900 -1,935 Descending Kansas City Center
Sun 03:59:37 PM 38.7075 -90.6933 86° East 373 429 9,900 -1,452 Descending Kansas City Center
Sun 04:00:38 PM 38.7117 -90.5889 87° East 325 374 8,900 -934 Descending Kansas City Center
Sun 04:01:39 PM 38.7078 -90.5019 93° East 279 321 8,000 -1,377 Descending Kansas City Center
Sun 04:02:40 PM 38.6706 -90.4114 118° Southeast 251 289 6,100 -960 Descending Kansas City Center
Sun 04:03:44 PM 38.6428 -90.3342 115° Southeast 231 266 6,000 -336 Descending Kansas City Center
Sun 04:04:45 PM 38.6208 -90.2831 119° Southeast 214 246 5,400 -768 Descending Kansas City Center
Sun 04:05:49 PM 38.5861 -90.2119 122° Southeast 214 246 4,400 -857 Descending Kansas City Center
Sun 04:06:51 PM 38.6128 -90.1411 64° Northeast 220 253 3,600 -393 Descending Kansas City Center
Sun 04:07:51 PM 38.6539 -90.1508 350° North 197 227 3,600 -97 Level Kansas City Center
Sun 04:08:55 PM 38.6764 -90.1992 301° West 172 198 3,400 -581 Descending Kansas City Center
Sun 04:09:55 PM 38.6942 -90.2439 297° West 156 180 2,400 -871 Descending Kansas City Center
Sun 04:10:59 PM 38.7142 -90.2897 299° West 151 174 1,600 -762 Descending Kansas City Center
Sun 04:12:01 PM 38.7356 -90.3336 302° West 134 154 800 -443 Descending Kansas City Center
Sun 04:13:01 PM 38.7533 -90.3711 301° West 132 152 700 -100 Descending Kansas City Center

Login

Don't have an account? Register now (free) for customized features, flight alerts, and more!